KLHB/LHB METAR and TAF weather

Enter ICAO airport designator
Station Type Date Time Source
KLHB METAR 2021/07/27 22:55 UTC NOAA

KLHB 272255Z AUTO 15003KT 10SM CLR 35/21 A2996 RMK AO2 T03500205


Station Type Date Time Source
KLHB Decoded METAR 2021/07/27 22:55 UTC NOAA

Hearne, Hearne Municipal Airport, TX, United States (KLHB) 30-52-18N 096-37-20W
Jul 27, 2021 - 06:55 PM EDT / 2021.07.27 2255 UTC
Wind: from the SSE (150 degrees) at 3 MPH (3 KT):0
Visibility: 10 mile(s):0
Sky conditions: clear
Temperature: 95.0 F (35.0 C)
Heat index: 100.0 F (37.8 C):1
Dew Point: 68.9 F (20.5 C)
Relative Humidity: 42%
Pressure (altimeter): 29.96 in. Hg (1014 hPa)
ob: KLHB 272255Z AUTO 15003KT 10SM CLR 35/21 A2996 RMK AO2 T03500205
cycle: 23

Station Type Date Time Source
KLHB TAF UTC NOAA

Error!

Example: see airport list